sensor_id;sensor_type;location;lat;lon;timestamp;P1;durP1;ratioP1;P2;durP2;ratioP2
67867;SDS011;54672;46.096;14.470;2023-12-22T00:02:12;20.20;;;9.23;;
67867;SDS011;54672;46.096;14.470;2023-12-22T00:04:38;17.67;;;8.82;;
67867;SDS011;54672;46.096;14.470;2023-12-22T00:07:03;18.70;;;8.63;;
67867;SDS011;54672;46.096;14.470;2023-12-22T00:09:29;15.27;;;7.80;;
67867;SDS011;54672;46.096;14.470;2023-12-22T00:11:54;14.65;;;7.43;;
67867;SDS011;54672;46.096;14.470;2023-12-22T00:14:20;15.82;;;7.15;;
67867;SDS011;54672;46.096;14.470;2023-12-22T00:16:45;14.65;;;7.45;;
67867;SDS011;54672;46.096;14.470;2023-12-22T00:19:10;14.55;;;6.35;;
67867;SDS011;54672;46.096;14.470;2023-12-22T00:21:36;16.33;;;7.38;;
67867;SDS011;54672;46.096;14.470;2023-12-22T00:24:02;15.05;;;7.53;;
67867;SDS011;54672;46.096;14.470;2023-12-22T00:26:27;17.08;;;7.45;;
67867;SDS011;54672;46.096;14.470;2023-12-22T00:28:53;13.43;;;7.20;;
67867;SDS011;54672;46.096;14.470;2023-12-22T00:31:18;12.13;;;6.25;;
67867;SDS011;54672;46.096;14.470;2023-12-22T00:33:43;17.60;;;7.97;;
67867;SDS011;54672;46.096;14.470;2023-12-22T00:36:09;19.58;;;9.00;;
67867;SDS011;54672;46.096;14.470;2023-12-22T00:38:34;12.95;;;7.63;;
67867;SDS011;54672;46.096;14.470;2023-12-22T00:41:00;19.38;;;7.97;;
67867;SDS011;54672;46.096;14.470;2023-12-22T00:43:25;15.68;;;7.25;;
67867;SDS011;54672;46.096;14.470;2023-12-22T00:45:51;17.80;;;8.75;;
67867;SDS011;54672;46.096;14.470;2023-12-22T00:48:16;17.90;;;7.95;;
67867;SDS011;54672;46.096;14.470;2023-12-22T00:50:41;16.90;;;7.75;;
67867;SDS011;54672;46.096;14.470;2023-12-22T00:53:07;18.77;;;8.13;;
67867;SDS011;54672;46.096;14.470;2023-12-22T00:55:32;18.38;;;8.30;;
67867;SDS011;54672;46.096;14.470;2023-12-22T00:57:59;18.35;;;8.32;;
67867;SDS011;54672;46.096;14.470;2023-12-22T01:00:24;20.38;;;9.88;;
67867;SDS011;54672;46.096;14.470;2023-12-22T01:02:50;17.58;;;8.60;;
67867;SDS011;54672;46.096;14.470;2023-12-22T01:05:15;19.58;;;7.60;;
67867;SDS011;54672;46.096;14.470;2023-12-22T01:07:41;13.23;;;6.32;;
67867;SDS011;54672;46.096;14.470;2023-12-22T01:10:06;17.80;;;7.57;;
67867;SDS011;54672;46.096;14.470;2023-12-22T01:12:32;13.90;;;7.18;;
67867;SDS011;54672;46.096;14.470;2023-12-22T01:14:57;12.30;;;6.95;;
67867;SDS011;54672;46.096;14.470;2023-12-22T01:17:23;13.88;;;6.35;;
67867;SDS011;54672;46.096;14.470;2023-12-22T01:19:48;14.93;;;6.78;;
67867;SDS011;54672;46.096;14.470;2023-12-22T01:22:14;13.02;;;7.05;;
67867;SDS011;54672;46.096;14.470;2023-12-22T01:24:40;14.82;;;6.90;;
67867;SDS011;54672;46.096;14.470;2023-12-22T01:27:08;14.18;;;7.07;;
67867;SDS011;54672;46.096;14.470;2023-12-22T01:29:34;16.13;;;6.93;;
67867;SDS011;54672;46.096;14.470;2023-12-22T01:32:00;13.48;;;6.82;;
67867;SDS011;54672;46.096;14.470;2023-12-22T01:34:25;13.88;;;6.65;;
67867;SDS011;54672;46.096;14.470;2023-12-22T01:36:51;13.50;;;6.82;;
67867;SDS011;54672;46.096;14.470;2023-12-22T01:39:16;16.55;;;6.57;;
67867;SDS011;54672;46.096;14.470;2023-12-22T01:41:42;9.75;;;4.97;;
67867;SDS011;54672;46.096;14.470;2023-12-22T01:44:07;11.70;;;6.18;;
67867;SDS011;54672;46.096;14.470;2023-12-22T01:46:33;13.18;;;6.30;;
67867;SDS011;54672;46.096;14.470;2023-12-22T01:48:59;13.02;;;5.82;;
67867;SDS011;54672;46.096;14.470;2023-12-22T01:51:27;10.07;;;4.93;;
67867;SDS011;54672;46.096;14.470;2023-12-22T01:53:54;13.93;;;5.38;;
67867;SDS011;54672;46.096;14.470;2023-12-22T01:56:20;14.48;;;6.40;;
67867;SDS011;54672;46.096;14.470;2023-12-22T01:58:45;12.25;;;5.13;;
67867;SDS011;54672;46.096;14.470;2023-12-22T02:01:11;10.00;;;4.30;;
67867;SDS011;54672;46.096;14.470;2023-12-22T02:03:38;11.52;;;5.03;;
67867;SDS011;54672;46.096;14.470;2023-12-22T02:06:04;11.48;;;5.30;;
67867;SDS011;54672;46.096;14.470;2023-12-22T02:08:31;14.10;;;6.20;;
67867;SDS011;54672;46.096;14.470;2023-12-22T02:10:58;14.10;;;6.93;;
67867;SDS011;54672;46.096;14.470;2023-12-22T02:13:23;14.68;;;6.00;;
67867;SDS011;54672;46.096;14.470;2023-12-22T02:15:51;15.18;;;6.72;;
67867;SDS011;54672;46.096;14.470;2023-12-22T02:18:25;13.07;;;5.70;;
67867;SDS011;54672;46.096;14.470;2023-12-22T02:20:54;10.90;;;5.22;;
67867;SDS011;54672;46.096;14.470;2023-12-22T02:23:20;13.93;;;6.10;;
67867;SDS011;54672;46.096;14.470;2023-12-22T02:25:45;9.43;;;4.68;;
67867;SDS011;54672;46.096;14.470;2023-12-22T02:28:12;11.60;;;5.57;;
67867;SDS011;54672;46.096;14.470;2023-12-22T02:31:02;11.88;;;5.25;;
67867;SDS011;54672;46.096;14.470;2023-12-22T02:33:34;14.60;;;5.82;;
67867;SDS011;54672;46.096;14.470;2023-12-22T02:36:03;11.88;;;5.80;;
67867;SDS011;54672;46.096;14.470;2023-12-22T02:38:31;10.18;;;4.85;;
67867;SDS011;54672;46.096;14.470;2023-12-22T02:40:58;10.60;;;5.35;;
67867;SDS011;54672;46.096;14.470;2023-12-22T02:43:24;10.52;;;5.50;;
67867;SDS011;54672;46.096;14.470;2023-12-22T02:45:50;8.75;;;4.90;;
67867;SDS011;54672;46.096;14.470;2023-12-22T02:48:16;10.25;;;5.15;;
67867;SDS011;54672;46.096;14.470;2023-12-22T02:50:41;9.82;;;5.15;;
67867;SDS011;54672;46.096;14.470;2023-12-22T02:53:07;10.35;;;4.97;;
67867;SDS011;54672;46.096;14.470;2023-12-22T02:55:32;11.63;;;4.95;;
67867;SDS011;54672;46.096;14.470;2023-12-22T02:57:58;9.07;;;4.63;;
67867;SDS011;54672;46.096;14.470;2023-12-22T03:00:24;11.20;;;5.47;;
67867;SDS011;54672;46.096;14.470;2023-12-22T03:02:49;10.48;;;5.13;;
67867;SDS011;54672;46.096;14.470;2023-12-22T03:05:14;9.70;;;4.88;;
67867;SDS011;54672;46.096;14.470;2023-12-22T03:07:40;11.05;;;5.18;;
67867;SDS011;54672;46.096;14.470;2023-12-22T03:10:05;10.68;;;5.60;;
67867;SDS011;54672;46.096;14.470;2023-12-22T03:12:31;9.35;;;4.93;;
67867;SDS011;54672;46.096;14.470;2023-12-22T03:14:56;12.07;;;6.53;;
67867;SDS011;54672;46.096;14.470;2023-12-22T03:17:22;12.40;;;5.93;;
67867;SDS011;54672;46.096;14.470;2023-12-22T03:19:47;14.65;;;7.07;;
67867;SDS011;54672;46.096;14.470;2023-12-22T03:22:13;15.07;;;6.47;;
67867;SDS011;54672;46.096;14.470;2023-12-22T03:24:38;12.77;;;6.43;;
67867;SDS011;54672;46.096;14.470;2023-12-22T03:27:04;11.05;;;6.25;;
67867;SDS011;54672;46.096;14.470;2023-12-22T03:29:29;15.20;;;6.97;;
67867;SDS011;54672;46.096;14.470;2023-12-22T03:31:55;11.00;;;5.45;;
67867;SDS011;54672;46.096;14.470;2023-12-22T03:34:20;10.63;;;5.40;;
67867;SDS011;54672;46.096;14.470;2023-12-22T03:36:45;12.68;;;5.70;;
67867;SDS011;54672;46.096;14.470;2023-12-22T03:39:14;12.38;;;5.93;;
67867;SDS011;54672;46.096;14.470;2023-12-22T03:41:40;11.15;;;4.75;;
67867;SDS011;54672;46.096;14.470;2023-12-22T03:44:06;11.25;;;5.45;;
67867;SDS011;54672;46.096;14.470;2023-12-22T03:46:32;11.77;;;5.57;;
67867;SDS011;54672;46.096;14.470;2023-12-22T03:48:57;12.35;;;5.50;;
67867;SDS011;54672;46.096;14.470;2023-12-22T03:51:23;13.50;;;6.03;;
67867;SDS011;54672;46.096;14.470;2023-12-22T03:53:48;10.73;;;5.38;;
67867;SDS011;54672;46.096;14.470;2023-12-22T03:56:14;11.20;;;5.50;;
67867;SDS011;54672;46.096;14.470;2023-12-22T03:58:39;12.02;;;5.75;;
67867;SDS011;54672;46.096;14.470;2023-12-22T04:01:05;11.93;;;5.95;;
67867;SDS011;54672;46.096;14.470;2023-12-22T04:03:32;13.20;;;6.05;;
67867;SDS011;54672;46.096;14.470;2023-12-22T04:06:03;13.55;;;6.53;;
67867;SDS011;54672;46.096;14.470;2023-12-22T04:08:29;9.23;;;5.03;;
67867;SDS011;54672;46.096;14.470;2023-12-22T04:10:54;11.57;;;5.80;;
67867;SDS011;54672;46.096;14.470;2023-12-22T04:13:19;11.02;;;4.78;;
67867;SDS011;54672;46.096;14.470;2023-12-22T04:15:45;14.35;;;7.32;;
67867;SDS011;54672;46.096;14.470;2023-12-22T04:18:10;13.55;;;6.82;;
67867;SDS011;54672;46.096;14.470;2023-12-22T04:20:36;12.32;;;5.47;;
67867;SDS011;54672;46.096;14.470;2023-12-22T04:23:01;13.85;;;6.53;;
67867;SDS011;54672;46.096;14.470;2023-12-22T04:25:27;13.35;;;5.65;;
67867;SDS011;54672;46.096;14.470;2023-12-22T04:27:52;10.32;;;5.38;;
67867;SDS011;54672;46.096;14.470;2023-12-22T04:30:17;13.27;;;6.05;;
67867;SDS011;54672;46.096;14.470;2023-12-22T04:32:43;7.68;;;3.28;;
67867;SDS011;54672;46.096;14.470;2023-12-22T04:35:08;12.90;;;6.05;;
67867;SDS011;54672;46.096;14.470;2023-12-22T04:37:34;11.13;;;5.68;;
67867;SDS011;54672;46.096;14.470;2023-12-22T04:39:59;9.52;;;4.88;;
67867;SDS011;54672;46.096;14.470;2023-12-22T04:42:25;13.43;;;6.90;;
67867;SDS011;54672;46.096;14.470;2023-12-22T04:44:50;9.35;;;4.30;;
67867;SDS011;54672;46.096;14.470;2023-12-22T04:47:16;16.13;;;7.68;;
67867;SDS011;54672;46.096;14.470;2023-12-22T04:49:42;14.13;;;7.45;;
67867;SDS011;54672;46.096;14.470;2023-12-22T04:52:07;12.32;;;5.68;;
67867;SDS011;54672;46.096;14.470;2023-12-22T04:54:33;12.38;;;6.53;;
67867;SDS011;54672;46.096;14.470;2023-12-22T04:56:58;12.27;;;6.50;;
67867;SDS011;54672;46.096;14.470;2023-12-22T04:59:23;12.02;;;5.38;;
67867;SDS011;54672;46.096;14.470;2023-12-22T05:01:49;7.70;;;3.53;;
67867;SDS011;54672;46.096;14.470;2023-12-22T05:04:14;10.35;;;5.03;;
67867;SDS011;54672;46.096;14.470;2023-12-22T05:06:40;9.43;;;4.95;;
67867;SDS011;54672;46.096;14.470;2023-12-22T05:09:05;12.52;;;5.90;;
67867;SDS011;54672;46.096;14.470;2023-12-22T05:11:31;12.65;;;5.38;;
67867;SDS011;54672;46.096;14.470;2023-12-22T05:13:56;17.92;;;6.05;;
67867;SDS011;54672;46.096;14.470;2023-12-22T05:16:22;16.95;;;8.13;;
67867;SDS011;54672;46.096;14.470;2023-12-22T05:18:48;13.55;;;6.57;;
67867;SDS011;54672;46.096;14.470;2023-12-22T05:21:13;13.30;;;5.82;;
67867;SDS011;54672;46.096;14.470;2023-12-22T05:23:39;12.38;;;5.72;;
67867;SDS011;54672;46.096;14.470;2023-12-22T05:26:05;16.67;;;6.30;;
67867;SDS011;54672;46.096;14.470;2023-12-22T05:28:30;12.60;;;6.53;;
67867;SDS011;54672;46.096;14.470;2023-12-22T05:30:57;15.35;;;7.40;;
67867;SDS011;54672;46.096;14.470;2023-12-22T05:33:22;12.07;;;5.57;;
67867;SDS011;54672;46.096;14.470;2023-12-22T05:35:47;12.93;;;6.13;;
67867;SDS011;54672;46.096;14.470;2023-12-22T05:38:13;16.35;;;6.65;;
67867;SDS011;54672;46.096;14.470;2023-12-22T05:40:38;10.50;;;5.63;;
67867;SDS011;54672;46.096;14.470;2023-12-22T05:43:04;13.45;;;6.50;;
67867;SDS011;54672;46.096;14.470;2023-12-22T05:45:29;13.57;;;7.18;;
67867;SDS011;54672;46.096;14.470;2023-12-22T05:47:55;15.52;;;6.95;;
67867;SDS011;54672;46.096;14.470;2023-12-22T05:50:20;13.75;;;6.60;;
67867;SDS011;54672;46.096;14.470;2023-12-22T05:52:45;18.80;;;6.95;;
67867;SDS011;54672;46.096;14.470;2023-12-22T05:55:11;14.98;;;6.88;;
67867;SDS011;54672;46.096;14.470;2023-12-22T05:57:36;17.40;;;7.00;;
67867;SDS011;54672;46.096;14.470;2023-12-22T06:00:04;15.07;;;6.68;;
67867;SDS011;54672;46.096;14.470;2023-12-22T06:02:32;12.35;;;6.43;;
67867;SDS011;54672;46.096;14.470;2023-12-22T06:04:58;16.88;;;7.32;;
67867;SDS011;54672;46.096;14.470;2023-12-22T06:07:24;17.70;;;7.50;;
67867;SDS011;54672;46.096;14.470;2023-12-22T06:09:49;12.52;;;5.20;;
67867;SDS011;54672;46.096;14.470;2023-12-22T06:12:14;12.05;;;5.88;;
67867;SDS011;54672;46.096;14.470;2023-12-22T06:14:40;12.93;;;6.25;;
67867;SDS011;54672;46.096;14.470;2023-12-22T06:17:06;17.67;;;6.28;;
67867;SDS011;54672;46.096;14.470;2023-12-22T06:19:31;14.30;;;7.15;;
67867;SDS011;54672;46.096;14.470;2023-12-22T06:21:57;15.43;;;7.22;;
67867;SDS011;54672;46.096;14.470;2023-12-22T06:24:23;14.15;;;5.25;;
67867;SDS011;54672;46.096;14.470;2023-12-22T06:26:49;13.75;;;6.15;;
67867;SDS011;54672;46.096;14.470;2023-12-22T06:29:15;13.88;;;6.65;;
67867;SDS011;54672;46.096;14.470;2023-12-22T06:31:40;22.23;;;8.77;;
67867;SDS011;54672;46.096;14.470;2023-12-22T06:34:06;16.73;;;8.32;;
67867;SDS011;54672;46.096;14.470;2023-12-22T06:36:31;18.27;;;8.20;;
67867;SDS011;54672;46.096;14.470;2023-12-22T06:38:57;15.95;;;7.20;;
67867;SDS011;54672;46.096;14.470;2023-12-22T06:41:26;17.40;;;7.70;;
67867;SDS011;54672;46.096;14.470;2023-12-22T06:43:54;16.70;;;7.28;;
67867;SDS011;54672;46.096;14.470;2023-12-22T06:46:24;23.20;;;8.95;;
67867;SDS011;54672;46.096;14.470;2023-12-22T06:48:53;18.63;;;8.55;;
67867;SDS011;54672;46.096;14.470;2023-12-22T06:51:26;24.02;;;9.25;;
67867;SDS011;54672;46.096;14.470;2023-12-22T06:53:53;23.02;;;9.43;;
67867;SDS011;54672;46.096;14.470;2023-12-22T06:56:23;17.05;;;8.52;;
67867;SDS011;54672;46.096;14.470;2023-12-22T06:58:51;16.73;;;8.48;;
67867;SDS011;54672;46.096;14.470;2023-12-22T07:01:18;14.93;;;7.18;;
67867;SDS011;54672;46.096;14.470;2023-12-22T07:03:52;17.33;;;7.65;;
67867;SDS011;54672;46.096;14.470;2023-12-22T07:06:18;16.75;;;6.70;;
67867;SDS011;54672;46.096;14.470;2023-12-22T07:11:36;17.63;;;7.38;;
67867;SDS011;54672;46.096;14.470;2023-12-22T07:14:02;15.80;;;7.22;;
67867;SDS011;54672;46.096;14.470;2023-12-22T07:16:27;15.30;;;6.55;;
67867;SDS011;54672;46.096;14.470;2023-12-22T07:18:53;17.75;;;7.05;;
67867;SDS011;54672;46.096;14.470;2023-12-22T07:21:18;17.08;;;7.75;;
67867;SDS011;54672;46.096;14.470;2023-12-22T07:23:45;15.95;;;7.78;;
67867;SDS011;54672;46.096;14.470;2023-12-22T07:26:10;20.23;;;8.40;;
67867;SDS011;54672;46.096;14.470;2023-12-22T07:28:36;17.40;;;8.15;;
67867;SDS011;54672;46.096;14.470;2023-12-22T07:31:01;15.85;;;7.53;;
67867;SDS011;54672;46.096;14.470;2023-12-22T07:33:27;17.27;;;7.38;;
67867;SDS011;54672;46.096;14.470;2023-12-22T07:35:53;20.50;;;8.05;;
67867;SDS011;54672;46.096;14.470;2023-12-22T07:38:18;15.70;;;7.85;;
67867;SDS011;54672;46.096;14.470;2023-12-22T07:40:44;20.20;;;8.45;;
67867;SDS011;54672;46.096;14.470;2023-12-22T07:43:09;16.13;;;7.80;;
67867;SDS011;54672;46.096;14.470;2023-12-22T07:45:35;15.23;;;8.30;;
67867;SDS011;54672;46.096;14.470;2023-12-22T07:48:00;17.10;;;8.30;;
67867;SDS011;54672;46.096;14.470;2023-12-22T07:50:26;14.68;;;6.82;;
67867;SDS011;54672;46.096;14.470;2023-12-22T07:52:52;21.60;;;8.10;;
67867;SDS011;54672;46.096;14.470;2023-12-22T07:55:18;19.67;;;8.55;;
67867;SDS011;54672;46.096;14.470;2023-12-22T07:57:43;16.40;;;7.57;;
67867;SDS011;54672;46.096;14.470;2023-12-22T08:00:10;22.75;;;10.73;;
67867;SDS011;54672;46.096;14.470;2023-12-22T08:02:36;22.92;;;10.20;;
67867;SDS011;54672;46.096;14.470;2023-12-22T08:05:01;16.55;;;7.57;;
67867;SDS011;54672;46.096;14.470;2023-12-22T08:07:28;17.33;;;8.07;;
67867;SDS011;54672;46.096;14.470;2023-12-22T08:09:54;18.92;;;9.13;;
67867;SDS011;54672;46.096;14.470;2023-12-22T08:12:20;19.00;;;8.85;;
67867;SDS011;54672;46.096;14.470;2023-12-22T08:14:45;23.40;;;8.77;;
67867;SDS011;54672;46.096;14.470;2023-12-22T08:17:11;18.80;;;7.95;;
67867;SDS011;54672;46.096;14.470;2023-12-22T08:19:38;20.10;;;9.38;;
67867;SDS011;54672;46.096;14.470;2023-12-22T08:22:04;22.85;;;9.98;;
67867;SDS011;54672;46.096;14.470;2023-12-22T08:24:29;17.05;;;8.23;;
67867;SDS011;54672;46.096;14.470;2023-12-22T08:26:55;22.25;;;9.57;;
67867;SDS011;54672;46.096;14.470;2023-12-22T08:29:20;17.98;;;8.77;;
67867;SDS011;54672;46.096;14.470;2023-12-22T08:31:45;19.10;;;7.70;;
67867;SDS011;54672;46.096;14.470;2023-12-22T08:34:11;18.23;;;7.25;;
67867;SDS011;54672;46.096;14.470;2023-12-22T08:36:36;15.45;;;7.22;;
67867;SDS011;54672;46.096;14.470;2023-12-22T08:39:02;14.23;;;6.57;;
67867;SDS011;54672;46.096;14.470;2023-12-22T08:41:28;14.32;;;7.13;;
67867;SDS011;54672;46.096;14.470;2023-12-22T08:43:53;17.02;;;7.53;;
67867;SDS011;54672;46.096;14.470;2023-12-22T08:46:19;20.23;;;9.02;;
67867;SDS011;54672;46.096;14.470;2023-12-22T08:48:44;14.63;;;8.48;;
67867;SDS011;54672;46.096;14.470;2023-12-22T08:51:10;22.42;;;9.55;;
67867;SDS011;54672;46.096;14.470;2023-12-22T08:53:35;21.08;;;9.98;;
67867;SDS011;54672;46.096;14.470;2023-12-22T08:56:02;21.95;;;10.40;;
67867;SDS011;54672;46.096;14.470;2023-12-22T08:58:29;20.95;;;10.30;;
67867;SDS011;54672;46.096;14.470;2023-12-22T09:00:55;21.48;;;10.65;;
67867;SDS011;54672;46.096;14.470;2023-12-22T09:03:20;19.60;;;10.63;;
67867;SDS011;54672;46.096;14.470;2023-12-22T09:05:45;22.13;;;8.77;;
67867;SDS011;54672;46.096;14.470;2023-12-22T09:08:12;24.65;;;11.23;;
67867;SDS011;54672;46.096;14.470;2023-12-22T09:10:37;25.55;;;10.40;;
67867;SDS011;54672;46.096;14.470;2023-12-22T09:13:03;26.77;;;12.00;;
67867;SDS011;54672;46.096;14.470;2023-12-22T09:15:28;23.95;;;11.43;;
67867;SDS011;54672;46.096;14.470;2023-12-22T09:17:54;19.52;;;10.32;;
67867;SDS011;54672;46.096;14.470;2023-12-22T09:20:21;21.73;;;10.73;;
67867;SDS011;54672;46.096;14.470;2023-12-22T09:22:46;21.30;;;10.73;;
67867;SDS011;54672;46.096;14.470;2023-12-22T09:25:12;21.33;;;10.90;;
67867;SDS011;54672;46.096;14.470;2023-12-22T09:27:37;22.63;;;10.25;;
67867;SDS011;54672;46.096;14.470;2023-12-22T09:30:03;23.13;;;10.65;;
67867;SDS011;54672;46.096;14.470;2023-12-22T09:32:32;21.20;;;9.70;;
67867;SDS011;54672;46.096;14.470;2023-12-22T09:34:57;19.45;;;9.57;;
67867;SDS011;54672;46.096;14.470;2023-12-22T09:37:24;18.33;;;9.70;;
67867;SDS011;54672;46.096;14.470;2023-12-22T09:39:49;20.45;;;9.60;;
67867;SDS011;54672;46.096;14.470;2023-12-22T09:42:15;28.98;;;13.10;;
67867;SDS011;54672;46.096;14.470;2023-12-22T09:44:41;21.90;;;10.73;;
67867;SDS011;54672;46.096;14.470;2023-12-22T09:47:07;16.13;;;8.95;;
67867;SDS011;54672;46.096;14.470;2023-12-22T09:49:37;19.25;;;9.77;;
67867;SDS011;54672;46.096;14.470;2023-12-22T09:52:04;21.27;;;10.80;;
67867;SDS011;54672;46.096;14.470;2023-12-22T09:54:31;24.77;;;12.20;;
67867;SDS011;54672;46.096;14.470;2023-12-22T09:56:57;19.85;;;9.48;;
67867;SDS011;54672;46.096;14.470;2023-12-22T09:59:27;22.52;;;11.45;;
67867;SDS011;54672;46.096;14.470;2023-12-22T10:01:54;21.35;;;11.00;;
67867;SDS011;54672;46.096;14.470;2023-12-22T10:04:20;22.88;;;11.25;;
67867;SDS011;54672;46.096;14.470;2023-12-22T10:06:46;20.08;;;9.57;;
67867;SDS011;54672;46.096;14.470;2023-12-22T10:09:13;20.65;;;10.98;;
67867;SDS011;54672;46.096;14.470;2023-12-22T10:11:40;21.08;;;9.75;;
67867;SDS011;54672;46.096;14.470;2023-12-22T10:14:08;21.98;;;9.30;;
67867;SDS011;54672;46.096;14.470;2023-12-22T10:16:35;19.33;;;9.70;;
67867;SDS011;54672;46.096;14.470;2023-12-22T10:19:02;22.15;;;9.50;;
67867;SDS011;54672;46.096;14.470;2023-12-22T10:21:28;18.45;;;10.00;;
67867;SDS011;54672;46.096;14.470;2023-12-22T10:23:56;18.65;;;8.57;;
67867;SDS011;54672;46.096;14.470;2023-12-22T10:26:21;17.65;;;8.80;;
67867;SDS011;54672;46.096;14.470;2023-12-22T10:28:47;17.73;;;9.05;;
67867;SDS011;54672;46.096;14.470;2023-12-22T10:31:16;17.90;;;8.75;;
67867;SDS011;54672;46.096;14.470;2023-12-22T10:33:43;20.65;;;9.57;;
67867;SDS011;54672;46.096;14.470;2023-12-22T10:36:09;26.20;;;10.40;;
67867;SDS011;54672;46.096;14.470;2023-12-22T10:38:35;21.85;;;11.07;;
67867;SDS011;54672;46.096;14.470;2023-12-22T10:41:01;20.88;;;10.38;;
67867;SDS011;54672;46.096;14.470;2023-12-22T10:43:30;19.65;;;10.30;;
67867;SDS011;54672;46.096;14.470;2023-12-22T10:46:01;17.88;;;8.80;;
67867;SDS011;54672;46.096;14.470;2023-12-22T10:48:28;18.25;;;8.77;;
67867;SDS011;54672;46.096;14.470;2023-12-22T10:50:54;19.60;;;10.82;;
67867;SDS011;54672;46.096;14.470;2023-12-22T10:53:20;16.50;;;9.38;;
67867;SDS011;54672;46.096;14.470;2023-12-22T10:55:46;15.32;;;9.07;;
67867;SDS011;54672;46.096;14.470;2023-12-22T10:58:15;14.68;;;8.13;;
67867;SDS011;54672;46.096;14.470;2023-12-22T11:00:41;19.88;;;8.48;;
67867;SDS011;54672;46.096;14.470;2023-12-22T11:03:12;13.18;;;6.10;;
67867;SDS011;54672;46.096;14.470;2023-12-22T11:05:43;13.50;;;7.70;;
67867;SDS011;54672;46.096;14.470;2023-12-22T11:08:11;18.27;;;9.30;;
67867;SDS011;54672;46.096;14.470;2023-12-22T11:10:37;24.40;;;12.63;;
67867;SDS011;54672;46.096;14.470;2023-12-22T11:13:08;24.90;;;12.23;;
67867;SDS011;54672;46.096;14.470;2023-12-22T11:15:35;21.27;;;10.77;;
67867;SDS011;54672;46.096;14.470;2023-12-22T11:18:01;14.23;;;7.32;;
67867;SDS011;54672;46.096;14.470;2023-12-22T11:20:28;13.52;;;6.80;;
67867;SDS011;54672;46.096;14.470;2023-12-22T11:22:57;9.27;;;5.25;;
67867;SDS011;54672;46.096;14.470;2023-12-22T11:25:26;10.05;;;5.45;;
67867;SDS011;54672;46.096;14.470;2023-12-22T11:27:52;12.35;;;6.30;;
67867;SDS011;54672;46.096;14.470;2023-12-22T11:30:21;10.65;;;6.50;;
67867;SDS011;54672;46.096;14.470;2023-12-22T11:32:49;9.02;;;4.70;;
67867;SDS011;54672;46.096;14.470;2023-12-22T11:35:15;12.32;;;5.22;;
67867;SDS011;54672;46.096;14.470;2023-12-22T11:37:42;6.35;;;3.50;;
67867;SDS011;54672;46.096;14.470;2023-12-22T11:40:08;9.40;;;4.40;;
67867;SDS011;54672;46.096;14.470;2023-12-22T11:42:35;4.57;;;2.78;;
67867;SDS011;54672;46.096;14.470;2023-12-22T11:45:09;5.82;;;2.85;;
67867;SDS011;54672;46.096;14.470;2023-12-22T11:47:36;7.72;;;4.45;;
67867;SDS011;54672;46.096;14.470;2023-12-22T11:50:02;12.52;;;5.93;;
67867;SDS011;54672;46.096;14.470;2023-12-22T11:52:27;12.82;;;5.78;;
67867;SDS011;54672;46.096;14.470;2023-12-22T11:54:57;12.85;;;6.53;;
67867;SDS011;54672;46.096;14.470;2023-12-22T11:57:36;13.15;;;6.28;;
67867;SDS011;54672;46.096;14.470;2023-12-22T12:02:32;13.70;;;6.68;;
67867;SDS011;54672;46.096;14.470;2023-12-22T12:05:03;13.70;;;6.40;;
67867;SDS011;54672;46.096;14.470;2023-12-22T12:07:39;14.13;;;6.25;;
67867;SDS011;54672;46.096;14.470;2023-12-22T12:10:11;14.18;;;7.30;;
67867;SDS011;54672;46.096;14.470;2023-12-22T12:12:37;12.15;;;6.55;;
67867;SDS011;54672;46.096;14.470;2023-12-22T12:15:13;14.20;;;6.95;;
67867;SDS011;54672;46.096;14.470;2023-12-22T12:17:42;15.60;;;7.43;;
67867;SDS011;54672;46.096;14.470;2023-12-22T12:20:11;14.50;;;7.82;;
67867;SDS011;54672;46.096;14.470;2023-12-22T12:22:37;15.00;;;7.40;;
67867;SDS011;54672;46.096;14.470;2023-12-22T12:25:06;16.27;;;8.07;;
67867;SDS011;54672;46.096;14.470;2023-12-22T12:27:34;13.70;;;7.38;;
67867;SDS011;54672;46.096;14.470;2023-12-22T12:30:10;16.27;;;7.22;;
67867;SDS011;54672;46.096;14.470;2023-12-22T12:32:37;17.08;;;8.02;;
67867;SDS011;54672;46.096;14.470;2023-12-22T12:35:03;16.20;;;8.48;;
67867;SDS011;54672;46.096;14.470;2023-12-22T12:37:29;13.77;;;7.47;;
67867;SDS011;54672;46.096;14.470;2023-12-22T12:39:55;12.27;;;6.50;;
67867;SDS011;54672;46.096;14.470;2023-12-22T12:42:25;12.75;;;7.03;;
67867;SDS011;54672;46.096;14.470;2023-12-22T12:44:56;13.73;;;6.97;;
67867;SDS011;54672;46.096;14.470;2023-12-22T12:47:22;14.23;;;6.22;;
67867;SDS011;54672;46.096;14.470;2023-12-22T12:49:56;14.38;;;7.50;;
67867;SDS011;54672;46.096;14.470;2023-12-22T12:52:22;14.77;;;6.95;;
67867;SDS011;54672;46.096;14.470;2023-12-22T12:54:48;15.18;;;7.65;;
67867;SDS011;54672;46.096;14.470;2023-12-22T12:57:14;14.70;;;7.75;;
67867;SDS011;54672;46.096;14.470;2023-12-22T12:59:44;15.85;;;8.75;;
67867;SDS011;54672;46.096;14.470;2023-12-22T13:02:10;15.52;;;7.15;;
67867;SDS011;54672;46.096;14.470;2023-12-22T13:04:38;15.00;;;7.63;;
67867;SDS011;54672;46.096;14.470;2023-12-22T13:07:04;13.80;;;6.70;;
67867;SDS011;54672;46.096;14.470;2023-12-22T13:09:33;12.40;;;6.50;;
67867;SDS011;54672;46.096;14.470;2023-12-22T13:11:59;15.32;;;7.35;;
67867;SDS011;54672;46.096;14.470;2023-12-22T13:14:25;14.30;;;7.57;;
67867;SDS011;54672;46.096;14.470;2023-12-22T13:16:52;13.77;;;7.97;;
67867;SDS011;54672;46.096;14.470;2023-12-22T13:19:20;15.93;;;7.63;;
67867;SDS011;54672;46.096;14.470;2023-12-22T13:21:46;11.30;;;6.15;;
67867;SDS011;54672;46.096;14.470;2023-12-22T13:24:15;12.98;;;6.97;;
67867;SDS011;54672;46.096;14.470;2023-12-22T13:26:41;13.02;;;6.85;;
67867;SDS011;54672;46.096;14.470;2023-12-22T13:29:08;13.88;;;6.13;;
67867;SDS011;54672;46.096;14.470;2023-12-22T13:31:38;12.45;;;6.45;;
67867;SDS011;54672;46.096;14.470;2023-12-22T13:34:11;11.13;;;6.03;;
67867;SDS011;54672;46.096;14.470;2023-12-22T13:36:38;11.50;;;5.72;;
67867;SDS011;54672;46.096;14.470;2023-12-22T13:39:05;14.25;;;6.40;;
67867;SDS011;54672;46.096;14.470;2023-12-22T13:41:41;10.63;;;6.10;;
67867;SDS011;54672;46.096;14.470;2023-12-22T13:44:10;13.15;;;6.20;;
67867;SDS011;54672;46.096;14.470;2023-12-22T13:46:36;13.43;;;5.97;;
67867;SDS011;54672;46.096;14.470;2023-12-22T13:49:05;12.95;;;6.60;;
67867;SDS011;54672;46.096;14.470;2023-12-22T13:51:42;12.90;;;6.93;;
67867;SDS011;54672;46.096;14.470;2023-12-22T13:54:09;11.40;;;5.85;;
67867;SDS011;54672;46.096;14.470;2023-12-22T13:56:37;11.45;;;6.45;;
67867;SDS011;54672;46.096;14.470;2023-12-22T13:59:07;11.73;;;6.47;;
67867;SDS011;54672;46.096;14.470;2023-12-22T14:01:32;12.40;;;6.43;;
67867;SDS011;54672;46.096;14.470;2023-12-22T14:03:58;12.85;;;6.43;;
67867;SDS011;54672;46.096;14.470;2023-12-22T14:06:27;10.82;;;5.97;;
67867;SDS011;54672;46.096;14.470;2023-12-22T14:08:53;10.40;;;6.38;;
67867;SDS011;54672;46.096;14.470;2023-12-22T14:11:20;11.77;;;6.15;;
67867;SDS011;54672;46.096;14.470;2023-12-22T14:13:45;12.68;;;6.47;;
67867;SDS011;54672;46.096;14.470;2023-12-22T14:16:11;12.40;;;6.63;;
67867;SDS011;54672;46.096;14.470;2023-12-22T14:18:36;11.77;;;5.65;;
67867;SDS011;54672;46.096;14.470;2023-12-22T14:21:02;13.40;;;6.88;;
67867;SDS011;54672;46.096;14.470;2023-12-22T14:23:30;13.77;;;7.35;;